createdAt,value
2022-09-07T05:25:02.418Z,16.80
2022-09-07T05:30:05.229Z,16.80
2022-09-07T05:35:08.344Z,16.80
2022-09-07T05:40:11.349Z,16.80
2022-09-07T05:45:13.275Z,16.80
2022-09-07T05:50:15.145Z,16.70
2022-09-07T05:55:29.319Z,16.70
2022-09-07T06:00:32.373Z,16.70
2022-09-07T06:05:34.313Z,16.70
2022-09-07T06:10:45.060Z,16.60
2022-09-07T06:15:47.132Z,16.70
2022-09-07T06:20:49.013Z,16.60
2022-09-07T06:25:50.877Z,16.70
2022-09-07T06:30:52.692Z,16.70
2022-09-07T06:36:05.653Z,16.70
2022-09-07T06:51:53.917Z,16.80
2022-09-07T06:56:55.764Z,16.80
2022-09-07T07:01:57.638Z,16.80
2022-09-07T07:06:59.452Z,16.80
2022-09-07T07:12:01.321Z,16.80
2022-09-07T07:17:03.323Z,16.90
2022-09-07T07:27:31.413Z,17.00
2022-09-07T07:32:33.263Z,17.10
2022-09-07T07:37:36.790Z,17.10
2022-09-07T07:42:41.809Z,17.20
2022-09-07T07:47:43.809Z,17.20
2022-09-07T07:53:41.344Z,17.30
2022-09-07T07:58:07.439Z,17.40
2022-09-07T08:03:09.513Z,17.50
2022-09-07T08:08:11.707Z,17.60
2022-09-07T08:13:14.723Z,17.70
2022-09-07T08:18:17.542Z,17.80
2022-09-07T08:23:22.189Z,17.90
2022-09-07T08:28:24.382Z,18.00
2022-09-07T08:33:26.352Z,18.20
2022-09-07T08:38:32.535Z,18.30
2022-09-07T08:43:49.384Z,18.40
2022-09-07T08:48:51.453Z,18.60
2022-09-07T08:53:53.301Z,18.70
2022-09-07T08:58:55.286Z,18.80
2022-09-07T09:09:22.058Z,19.10
2022-09-07T09:20:08.363Z,19.30
2022-09-07T09:25:21.648Z,19.30
2022-09-07T09:30:24.568Z,19.50
2022-09-07T09:35:32.486Z,19.50
2022-09-07T09:40:35.935Z,19.60
2022-09-07T09:56:41.447Z,20.00
2022-09-07T10:07:22.945Z,20.40
2022-09-07T10:12:29.104Z,20.60
2022-09-07T10:17:43.843Z,20.70
2022-09-07T10:23:06.550Z,20.90
2022-09-07T10:28:13.784Z,21.10
2022-09-07T10:33:28.317Z,21.10
2022-09-07T10:38:32.937Z,21.10
2022-09-07T10:43:43.789Z,21.00
2022-09-07T10:49:03.257Z,21.10
2022-09-07T10:54:39.186Z,21.40
2022-09-07T11:00:13.004Z,21.70
2022-09-07T11:05:41.787Z,22.00
2022-09-07T11:11:11.027Z,22.20
2022-09-07T11:21:57.211Z,23.00
2022-09-07T11:27:09.292Z,23.10
2022-09-07T11:32:18.751Z,23.40
2022-09-07T11:37:31.301Z,23.80
2022-09-07T11:42:51.149Z,24.10
2022-09-07T11:47:59.416Z,24.40
2022-09-07T11:53:07.791Z,24.70
2022-09-07T11:58:32.603Z,24.90
2022-09-07T12:03:58.543Z,25.10
2022-09-07T12:09:09.521Z,25.00
2022-09-07T12:14:24.468Z,25.10
2022-09-07T12:19:27.538Z,25.20
2022-09-07T12:24:35.305Z,25.20
2022-09-07T12:29:37.674Z,25.40
2022-09-07T12:34:57.843Z,25.50
2022-09-07T12:40:30.696Z,25.40
2022-09-07T12:45:38.473Z,25.40
2022-09-07T12:51:10.979Z,25.60
2022-09-07T12:56:16.582Z,25.80
2022-09-07T13:01:25.135Z,25.70
2022-09-07T13:11:54.425Z,25.90
2022-09-07T13:17:36.360Z,25.90
2022-09-07T13:22:38.500Z,25.90
2022-09-07T13:27:45.133Z,25.80
2022-09-07T13:38:12.366Z,25.50
2022-09-07T13:43:19.340Z,25.60
2022-09-07T13:48:30.384Z,25.80
2022-09-07T13:53:48.229Z,26.00
2022-09-07T13:58:52.106Z,26.10
2022-09-07T14:03:57.310Z,26.20
2022-09-07T14:09:03.915Z,26.40
2022-09-07T14:14:14.046Z,26.20
2022-09-07T14:19:22.025Z,26.10
2022-09-07T14:24:29.665Z,26.10
2022-09-07T14:29:34.332Z,26.10
2022-09-07T14:34:37.580Z,26.20
2022-09-07T14:39:40.826Z,26.20
2022-09-07T14:44:43.172Z,26.40
2022-09-07T14:49:52.071Z,26.50
2022-09-07T14:54:53.837Z,26.50
2022-09-07T14:59:57.861Z,26.40
2022-09-07T15:05:15.015Z,26.30
2022-09-07T15:10:23.679Z,26.20
2022-09-07T15:15:59.417Z,26.20
2022-09-07T15:21:02.151Z,26.10
2022-09-07T15:26:04.202Z,26.10
2022-09-07T15:36:28.820Z,26.20
2022-09-07T15:41:31.365Z,26.30
2022-09-07T15:46:33.253Z,26.40
2022-09-07T16:13:11.209Z,26.40
2022-09-07T16:18:16.787Z,26.30
2022-09-07T16:23:19.057Z,26.20
2022-09-07T16:28:20.983Z,26.00
2022-09-07T16:33:27.017Z,25.90
2022-09-07T16:38:51.118Z,25.80
2022-09-07T16:43:54.543Z,25.70
2022-09-07T16:48:57.228Z,25.60
2022-09-07T16:54:00.502Z,25.50
2022-09-07T16:59:04.366Z,25.40
2022-09-07T17:04:10.685Z,25.20
2022-09-07T17:09:14.598Z,25.10
2022-09-07T17:14:17.217Z,25.00
2022-09-07T17:19:36.235Z,24.90
2022-09-07T17:24:40.545Z,24.80
2022-09-07T17:29:42.651Z,24.70
2022-09-07T17:34:44.459Z,24.60
2022-09-07T17:39:46.309Z,24.50
2022-09-07T17:44:52.854Z,24.50
2022-09-07T17:49:54.944Z,24.30
2022-09-07T17:54:57.922Z,24.30
2022-09-07T18:00:16.085Z,24.20
2022-09-07T18:05:18.346Z,24.10
2022-09-07T18:10:24.189Z,24.00
2022-09-07T18:15:26.193Z,23.90
2022-09-07T18:20:32.587Z,23.90
2022-09-07T18:25:34.711Z,23.80
2022-09-07T18:30:43.261Z,23.70
2022-09-07T18:35:46.864Z,23.60
2022-09-07T18:40:51.046Z,23.60
2022-09-07T18:45:53.177Z,23.50
2022-09-07T18:50:55.086Z,23.40
2022-09-07T18:56:08.402Z,23.30
2022-09-07T19:01:13.045Z,23.30
2022-09-07T19:06:15.253Z,23.20
2022-09-07T19:11:19.265Z,23.10
2022-09-07T19:16:21.196Z,23.10
2022-09-07T19:21:25.888Z,23.00
2022-09-07T19:26:33.624Z,23.00
2022-09-07T19:31:35.660Z,22.90
2022-09-07T19:36:37.671Z,22.80
2022-09-07T19:41:42.529Z,22.80
2022-09-07T19:46:45.217Z,22.70
2022-09-07T19:51:49.488Z,22.70
2022-09-07T19:56:52.567Z,22.60
